sensor_id;sensor_type;location;lat;lon;timestamp;P1;durP1;ratioP1;P2;durP2;ratioP2
78183;SDS011;67442;44.570;18.610;2024-01-15T00:00:53;302.65;;;103.07;;
78183;SDS011;67442;44.570;18.610;2024-01-15T00:03:24;326.95;;;110.07;;
78183;SDS011;67442;44.570;18.610;2024-01-15T00:05:52;302.38;;;102.22;;
78183;SDS011;67442;44.570;18.610;2024-01-15T00:08:20;342.02;;;111.53;;
78183;SDS011;67442;44.570;18.610;2024-01-15T00:10:48;371.77;;;116.80;;
78183;SDS011;67442;44.570;18.610;2024-01-15T00:13:15;374.20;;;120.78;;
78183;SDS011;67442;44.570;18.610;2024-01-15T00:15:43;378.88;;;116.97;;
78183;SDS011;67442;44.570;18.610;2024-01-15T00:18:14;587.75;;;182.43;;
78183;SDS011;67442;44.570;18.610;2024-01-15T00:20:46;493.23;;;151.45;;
78183;SDS011;67442;44.570;18.610;2024-01-15T00:23:14;402.90;;;132.23;;
78183;SDS011;67442;44.570;18.610;2024-01-15T00:26:02;373.30;;;117.70;;
78183;SDS011;67442;44.570;18.610;2024-01-15T00:28:33;316.98;;;102.85;;
78183;SDS011;67442;44.570;18.610;2024-01-15T00:31:02;312.88;;;100.38;;
78183;SDS011;67442;44.570;18.610;2024-01-15T00:33:33;298.98;;;95.85;;
78183;SDS011;67442;44.570;18.610;2024-01-15T00:36:04;253.13;;;82.13;;
78183;SDS011;67442;44.570;18.610;2024-01-15T00:38:33;220.40;;;69.72;;
78183;SDS011;67442;44.570;18.610;2024-01-15T00:41:01;201.88;;;66.38;;
78183;SDS011;67442;44.570;18.610;2024-01-15T00:43:33;262.55;;;80.30;;
78183;SDS011;67442;44.570;18.610;2024-01-15T00:46:05;328.35;;;93.60;;
78183;SDS011;67442;44.570;18.610;2024-01-15T00:48:36;266.65;;;82.82;;
78183;SDS011;67442;44.570;18.610;2024-01-15T00:51:06;497.40;;;136.93;;
78183;SDS011;67442;44.570;18.610;2024-01-15T00:53:33;318.40;;;96.75;;
78183;SDS011;67442;44.570;18.610;2024-01-15T00:56:01;319.02;;;92.07;;
78183;SDS011;67442;44.570;18.610;2024-01-15T00:58:29;289.30;;;91.00;;
78183;SDS011;67442;44.570;18.610;2024-01-15T01:01:00;325.98;;;103.70;;
78183;SDS011;67442;44.570;18.610;2024-01-15T01:03:28;282.25;;;90.63;;
78183;SDS011;67442;44.570;18.610;2024-01-15T01:05:55;429.80;;;115.47;;
78183;SDS011;67442;44.570;18.610;2024-01-15T01:08:26;789.88;;;230.57;;
78183;SDS011;67442;44.570;18.610;2024-01-15T01:10:55;547.35;;;152.40;;
78183;SDS011;67442;44.570;18.610;2024-01-15T01:13:23;491.35;;;144.93;;
78183;SDS011;67442;44.570;18.610;2024-01-15T01:15:50;472.15;;;138.95;;
78183;SDS011;67442;44.570;18.610;2024-01-15T01:18:20;368.20;;;111.75;;
78183;SDS011;67442;44.570;18.610;2024-01-15T01:20:48;515.58;;;152.48;;
78183;SDS011;67442;44.570;18.610;2024-01-15T01:23:16;432.23;;;130.35;;
78183;SDS011;67442;44.570;18.610;2024-01-15T01:25:44;394.15;;;119.72;;
78183;SDS011;67442;44.570;18.610;2024-01-15T01:28:14;398.85;;;118.45;;
78183;SDS011;67442;44.570;18.610;2024-01-15T01:30:59;433.52;;;127.55;;
78183;SDS011;67442;44.570;18.610;2024-01-15T01:33:27;490.02;;;148.57;;
78183;SDS011;67442;44.570;18.610;2024-01-15T01:35:54;318.30;;;101.35;;
78183;SDS011;67442;44.570;18.610;2024-01-15T01:38:22;425.75;;;126.07;;
78183;SDS011;67442;44.570;18.610;2024-01-15T01:40:53;320.10;;;100.20;;
78183;SDS011;67442;44.570;18.610;2024-01-15T01:43:21;443.98;;;135.30;;
78183;SDS011;67442;44.570;18.610;2024-01-15T01:45:48;536.75;;;159.50;;
78183;SDS011;67442;44.570;18.610;2024-01-15T01:48:15;478.13;;;148.63;;
78183;SDS011;67442;44.570;18.610;2024-01-15T01:50:45;409.55;;;130.40;;
78183;SDS011;67442;44.570;18.610;2024-01-15T01:53:16;340.60;;;113.80;;
78183;SDS011;67442;44.570;18.610;2024-01-15T01:55:48;302.95;;;97.28;;
78183;SDS011;67442;44.570;18.610;2024-01-15T01:58:15;379.75;;;120.68;;
78183;SDS011;67442;44.570;18.610;2024-01-15T02:00:43;349.38;;;112.93;;
78183;SDS011;67442;44.570;18.610;2024-01-15T02:03:10;349.10;;;110.80;;
78183;SDS011;67442;44.570;18.610;2024-01-15T02:05:39;294.50;;;87.50;;
78183;SDS011;67442;44.570;18.610;2024-01-15T02:08:09;271.33;;;82.47;;
78183;SDS011;67442;44.570;18.610;2024-01-15T02:10:37;277.08;;;81.60;;
78183;SDS011;67442;44.570;18.610;2024-01-15T02:13:07;310.88;;;91.25;;
78183;SDS011;67442;44.570;18.610;2024-01-15T02:15:38;372.73;;;103.10;;
78183;SDS011;67442;44.570;18.610;2024-01-15T02:18:06;366.10;;;105.05;;
78183;SDS011;67442;44.570;18.610;2024-01-15T02:20:38;314.00;;;91.43;;
78183;SDS011;67442;44.570;18.610;2024-01-15T02:23:10;306.67;;;91.60;;
78183;SDS011;67442;44.570;18.610;2024-01-15T02:25:45;303.17;;;91.47;;
78183;SDS011;67442;44.570;18.610;2024-01-15T02:28:13;316.00;;;94.45;;
78183;SDS011;67442;44.570;18.610;2024-01-15T02:30:42;312.60;;;92.47;;
78183;SDS011;67442;44.570;18.610;2024-01-15T02:33:09;305.58;;;95.53;;
78183;SDS011;67442;44.570;18.610;2024-01-15T02:35:37;308.48;;;95.90;;
78183;SDS011;67442;44.570;18.610;2024-01-15T02:38:04;429.42;;;124.50;;
78183;SDS011;67442;44.570;18.610;2024-01-15T02:40:31;364.58;;;109.40;;
78183;SDS011;67442;44.570;18.610;2024-01-15T02:42:59;408.92;;;121.38;;
78183;SDS011;67442;44.570;18.610;2024-01-15T02:45:26;435.17;;;120.03;;
78183;SDS011;67442;44.570;18.610;2024-01-15T02:47:53;394.95;;;112.57;;
78183;SDS011;67442;44.570;18.610;2024-01-15T02:50:20;382.45;;;116.07;;
78183;SDS011;67442;44.570;18.610;2024-01-15T02:52:47;329.17;;;97.00;;
78183;SDS011;67442;44.570;18.610;2024-01-15T02:55:17;303.85;;;93.00;;
78183;SDS011;67442;44.570;18.610;2024-01-15T02:57:45;322.45;;;96.68;;
78183;SDS011;67442;44.570;18.610;2024-01-15T03:00:13;290.88;;;89.15;;
78183;SDS011;67442;44.570;18.610;2024-01-15T03:02:44;255.77;;;77.25;;
78183;SDS011;67442;44.570;18.610;2024-01-15T03:05:11;294.70;;;83.60;;
78183;SDS011;67442;44.570;18.610;2024-01-15T03:07:42;344.77;;;107.25;;
78183;SDS011;67442;44.570;18.610;2024-01-15T03:10:10;313.05;;;99.15;;
78183;SDS011;67442;44.570;18.610;2024-01-15T03:12:37;222.90;;;68.07;;
78183;SDS011;67442;44.570;18.610;2024-01-15T03:15:07;248.90;;;72.47;;
78183;SDS011;67442;44.570;18.610;2024-01-15T03:17:36;287.27;;;82.32;;
78183;SDS011;67442;44.570;18.610;2024-01-15T03:20:03;315.52;;;88.72;;
78183;SDS011;67442;44.570;18.610;2024-01-15T03:22:33;286.83;;;87.03;;
78183;SDS011;67442;44.570;18.610;2024-01-15T03:25:00;245.65;;;74.28;;
78183;SDS011;67442;44.570;18.610;2024-01-15T03:27:29;239.05;;;71.30;;
78183;SDS011;67442;44.570;18.610;2024-01-15T03:30:00;189.18;;;58.20;;
78183;SDS011;67442;44.570;18.610;2024-01-15T03:32:29;263.95;;;78.35;;
78183;SDS011;67442;44.570;18.610;2024-01-15T03:35:00;261.17;;;80.38;;
78183;SDS011;67442;44.570;18.610;2024-01-15T03:37:27;289.50;;;91.75;;
78183;SDS011;67442;44.570;18.610;2024-01-15T03:39:55;325.90;;;98.40;;
78183;SDS011;67442;44.570;18.610;2024-01-15T03:42:22;301.52;;;92.70;;
78183;SDS011;67442;44.570;18.610;2024-01-15T03:44:50;245.50;;;76.85;;
78183;SDS011;67442;44.570;18.610;2024-01-15T03:47:21;208.75;;;62.17;;
78183;SDS011;67442;44.570;18.610;2024-01-15T03:49:48;159.75;;;52.95;;
78183;SDS011;67442;44.570;18.610;2024-01-15T03:52:15;180.15;;;59.10;;
78183;SDS011;67442;44.570;18.610;2024-01-15T03:54:46;257.88;;;76.30;;
78183;SDS011;67442;44.570;18.610;2024-01-15T03:57:14;213.27;;;68.40;;
78183;SDS011;67442;44.570;18.610;2024-01-15T03:59:41;203.63;;;66.43;;
78183;SDS011;67442;44.570;18.610;2024-01-15T04:02:10;238.35;;;70.72;;
78183;SDS011;67442;44.570;18.610;2024-01-15T04:04:40;339.67;;;97.57;;
78183;SDS011;67442;44.570;18.610;2024-01-15T04:07:09;292.17;;;81.90;;
78183;SDS011;67442;44.570;18.610;2024-01-15T04:09:36;241.05;;;73.10;;
78183;SDS011;67442;44.570;18.610;2024-01-15T04:12:04;281.10;;;79.00;;
78183;SDS011;67442;44.570;18.610;2024-01-15T04:14:32;268.73;;;78.25;;
78183;SDS011;67442;44.570;18.610;2024-01-15T04:16:59;264.77;;;80.90;;
78183;SDS011;67442;44.570;18.610;2024-01-15T04:19:27;241.93;;;74.65;;
78183;SDS011;67442;44.570;18.610;2024-01-15T04:21:55;221.27;;;70.35;;
78183;SDS011;67442;44.570;18.610;2024-01-15T04:24:22;258.80;;;82.45;;
78183;SDS011;67442;44.570;18.610;2024-01-15T04:26:50;252.35;;;72.65;;
78183;SDS011;67442;44.570;18.610;2024-01-15T04:29:18;318.60;;;89.32;;
78183;SDS011;67442;44.570;18.610;2024-01-15T04:31:45;275.05;;;84.72;;
78183;SDS011;67442;44.570;18.610;2024-01-15T04:34:13;284.05;;;86.85;;
78183;SDS011;67442;44.570;18.610;2024-01-15T04:36:40;314.33;;;91.85;;
78183;SDS011;67442;44.570;18.610;2024-01-15T04:39:08;262.13;;;81.00;;
78183;SDS011;67442;44.570;18.610;2024-01-15T04:41:37;255.18;;;78.70;;
78183;SDS011;67442;44.570;18.610;2024-01-15T04:44:04;266.98;;;83.82;;
78183;SDS011;67442;44.570;18.610;2024-01-15T04:46:36;265.70;;;79.80;;
78183;SDS011;67442;44.570;18.610;2024-01-15T04:49:03;265.67;;;78.93;;
78183;SDS011;67442;44.570;18.610;2024-01-15T04:51:31;260.13;;;79.82;;
78183;SDS011;67442;44.570;18.610;2024-01-15T04:53:58;204.77;;;65.22;;
78183;SDS011;67442;44.570;18.610;2024-01-15T04:56:29;131.73;;;46.58;;
78183;SDS011;67442;44.570;18.610;2024-01-15T04:58:56;109.78;;;36.17;;
78183;SDS011;67442;44.570;18.610;2024-01-15T05:01:30;279.60;;;74.38;;
78183;SDS011;67442;44.570;18.610;2024-01-15T05:04:00;253.68;;;74.25;;
78183;SDS011;67442;44.570;18.610;2024-01-15T05:06:29;236.98;;;71.93;;
78183;SDS011;67442;44.570;18.610;2024-01-15T05:08:58;244.43;;;71.85;;
78183;SDS011;67442;44.570;18.610;2024-01-15T05:11:26;223.52;;;67.03;;
78183;SDS011;67442;44.570;18.610;2024-01-15T05:14:00;142.63;;;46.13;;
78183;SDS011;67442;44.570;18.610;2024-01-15T05:16:30;225.25;;;64.88;;
78183;SDS011;67442;44.570;18.610;2024-01-15T05:18:56;290.95;;;81.38;;
78183;SDS011;67442;44.570;18.610;2024-01-15T05:21:23;253.70;;;73.75;;
78183;SDS011;67442;44.570;18.610;2024-01-15T05:23:55;250.55;;;69.10;;
78183;SDS011;67442;44.570;18.610;2024-01-15T05:26:23;205.38;;;61.15;;
78183;SDS011;67442;44.570;18.610;2024-01-15T05:28:50;165.32;;;53.00;;
78183;SDS011;67442;44.570;18.610;2024-01-15T05:31:17;218.85;;;69.90;;
78183;SDS011;67442;44.570;18.610;2024-01-15T05:33:45;219.27;;;69.85;;
78183;SDS011;67442;44.570;18.610;2024-01-15T05:36:13;225.00;;;63.60;;
78183;SDS011;67442;44.570;18.610;2024-01-15T05:38:41;236.65;;;72.28;;
78183;SDS011;67442;44.570;18.610;2024-01-15T05:41:12;234.73;;;73.88;;
78183;SDS011;67442;44.570;18.610;2024-01-15T05:43:39;185.00;;;60.03;;
78183;SDS011;67442;44.570;18.610;2024-01-15T05:46:07;187.30;;;60.92;;
78183;SDS011;67442;44.570;18.610;2024-01-15T05:48:35;229.23;;;70.82;;
78183;SDS011;67442;44.570;18.610;2024-01-15T05:51:03;319.65;;;97.45;;
78183;SDS011;67442;44.570;18.610;2024-01-15T05:53:30;234.93;;;76.20;;
78183;SDS011;67442;44.570;18.610;2024-01-15T05:55:58;226.43;;;72.43;;
78183;SDS011;67442;44.570;18.610;2024-01-15T05:58:26;601.70;;;166.73;;
78183;SDS011;67442;44.570;18.610;2024-01-15T06:00:54;246.57;;;82.85;;
78183;SDS011;67442;44.570;18.610;2024-01-15T06:03:22;352.02;;;97.93;;
78183;SDS011;67442;44.570;18.610;2024-01-15T06:05:53;274.38;;;84.03;;
78183;SDS011;67442;44.570;18.610;2024-01-15T06:08:20;417.77;;;123.00;;
78183;SDS011;67442;44.570;18.610;2024-01-15T06:10:48;482.20;;;140.90;;
78183;SDS011;67442;44.570;18.610;2024-01-15T06:13:16;504.50;;;166.13;;
78183;SDS011;67442;44.570;18.610;2024-01-15T06:15:43;402.73;;;130.85;;
78183;SDS011;67442;44.570;18.610;2024-01-15T06:18:11;348.52;;;111.45;;
78183;SDS011;67442;44.570;18.610;2024-01-15T06:20:39;320.35;;;104.78;;
78183;SDS011;67442;44.570;18.610;2024-01-15T06:23:06;311.33;;;100.25;;
78183;SDS011;67442;44.570;18.610;2024-01-15T06:25:33;242.98;;;83.35;;
78183;SDS011;67442;44.570;18.610;2024-01-15T06:28:01;280.70;;;86.95;;
78183;SDS011;67442;44.570;18.610;2024-01-15T06:30:30;227.90;;;76.43;;
78183;SDS011;67442;44.570;18.610;2024-01-15T06:32:58;349.58;;;106.90;;
78183;SDS011;67442;44.570;18.610;2024-01-15T06:35:25;445.13;;;125.55;;
78183;SDS011;67442;44.570;18.610;2024-01-15T06:37:53;460.58;;;123.40;;
78183;SDS011;67442;44.570;18.610;2024-01-15T06:40:21;587.40;;;153.88;;
78183;SDS011;67442;44.570;18.610;2024-01-15T06:42:48;399.17;;;122.22;;
78183;SDS011;67442;44.570;18.610;2024-01-15T06:45:16;293.80;;;99.03;;
78183;SDS011;67442;44.570;18.610;2024-01-15T06:47:47;310.50;;;97.50;;
78183;SDS011;67442;44.570;18.610;2024-01-15T06:50:15;1025.95;;;376.48;;
78183;SDS011;67442;44.570;18.610;2024-01-15T06:52:43;446.80;;;150.95;;
78183;SDS011;67442;44.570;18.610;2024-01-15T06:55:20;604.25;;;192.68;;
78183;SDS011;67442;44.570;18.610;2024-01-15T06:57:49;596.40;;;190.65;;
78183;SDS011;67442;44.570;18.610;2024-01-15T07:00:17;495.55;;;168.15;;
78183;SDS011;67442;44.570;18.610;2024-01-15T07:02:45;410.30;;;141.73;;
78183;SDS011;67442;44.570;18.610;2024-01-15T07:05:13;340.05;;;120.47;;
78183;SDS011;67442;44.570;18.610;2024-01-15T07:07:41;242.43;;;89.50;;
78183;SDS011;67442;44.570;18.610;2024-01-15T07:10:12;166.93;;;64.93;;
78183;SDS011;67442;44.570;18.610;2024-01-15T07:12:43;172.07;;;64.93;;
78183;SDS011;67442;44.570;18.610;2024-01-15T07:15:13;187.90;;;69.90;;
78183;SDS011;67442;44.570;18.610;2024-01-15T07:17:41;182.07;;;71.15;;
78183;SDS011;67442;44.570;18.610;2024-01-15T07:20:13;208.93;;;78.20;;
78183;SDS011;67442;44.570;18.610;2024-01-15T07:22:42;178.80;;;71.18;;
78183;SDS011;67442;44.570;18.610;2024-01-15T07:25:09;190.20;;;78.35;;
78183;SDS011;67442;44.570;18.610;2024-01-15T07:27:38;309.65;;;109.47;;
78183;SDS011;67442;44.570;18.610;2024-01-15T07:30:08;254.18;;;95.05;;
78183;SDS011;67442;44.570;18.610;2024-01-15T07:32:37;270.27;;;97.20;;
78183;SDS011;67442;44.570;18.610;2024-01-15T07:35:08;346.33;;;119.68;;
78183;SDS011;67442;44.570;18.610;2024-01-15T07:37:42;325.63;;;117.32;;
78183;SDS011;67442;44.570;18.610;2024-01-15T07:40:10;394.83;;;140.60;;
78183;SDS011;67442;44.570;18.610;2024-01-15T07:42:37;355.85;;;127.00;;
78183;SDS011;67442;44.570;18.610;2024-01-15T07:45:05;614.40;;;209.65;;
78183;SDS011;67442;44.570;18.610;2024-01-15T07:47:33;478.38;;;162.48;;
78183;SDS011;67442;44.570;18.610;2024-01-15T07:50:01;429.27;;;152.93;;
78183;SDS011;67442;44.570;18.610;2024-01-15T07:52:30;403.92;;;148.23;;
78183;SDS011;67442;44.570;18.610;2024-01-15T07:54:57;613.85;;;212.32;;
78183;SDS011;67442;44.570;18.610;2024-01-15T07:57:44;408.70;;;150.75;;
78183;SDS011;67442;44.570;18.610;2024-01-15T08:00:11;366.40;;;134.77;;
78183;SDS011;67442;44.570;18.610;2024-01-15T08:02:41;305.17;;;111.22;;
78183;SDS011;67442;44.570;18.610;2024-01-15T08:05:09;361.88;;;134.88;;
78183;SDS011;67442;44.570;18.610;2024-01-15T08:07:41;366.35;;;139.35;;
78183;SDS011;67442;44.570;18.610;2024-01-15T08:10:08;427.23;;;155.50;;
78183;SDS011;67442;44.570;18.610;2024-01-15T08:12:42;538.25;;;206.35;;
78183;SDS011;67442;44.570;18.610;2024-01-15T08:15:13;550.53;;;225.55;;
78183;SDS011;67442;44.570;18.610;2024-01-15T08:17:41;543.67;;;210.55;;
78183;SDS011;67442;44.570;18.610;2024-01-15T08:20:13;570.85;;;223.25;;
78183;SDS011;67442;44.570;18.610;2024-01-15T08:22:41;577.50;;;241.15;;
78183;SDS011;67442;44.570;18.610;2024-01-15T08:25:12;561.95;;;231.18;;
78183;SDS011;67442;44.570;18.610;2024-01-15T08:27:40;290.35;;;109.38;;
78183;SDS011;67442;44.570;18.610;2024-01-15T08:30:11;282.60;;;103.13;;
78183;SDS011;67442;44.570;18.610;2024-01-15T08:32:40;250.57;;;97.63;;
78183;SDS011;67442;44.570;18.610;2024-01-15T08:35:10;270.92;;;102.50;;
78183;SDS011;67442;44.570;18.610;2024-01-15T08:37:38;288.95;;;110.25;;
78183;SDS011;67442;44.570;18.610;2024-01-15T08:40:09;311.10;;;122.70;;
78183;SDS011;67442;44.570;18.610;2024-01-15T08:42:44;304.70;;;118.80;;
78183;SDS011;67442;44.570;18.610;2024-01-15T08:45:15;294.67;;;119.65;;
78183;SDS011;67442;44.570;18.610;2024-01-15T08:47:43;329.55;;;131.23;;
78183;SDS011;67442;44.570;18.610;2024-01-15T08:50:12;319.45;;;129.77;;
78183;SDS011;67442;44.570;18.610;2024-01-15T08:52:40;357.48;;;144.88;;
78183;SDS011;67442;44.570;18.610;2024-01-15T08:55:08;326.00;;;130.55;;
78183;SDS011;67442;44.570;18.610;2024-01-15T08:57:35;371.17;;;129.63;;
78183;SDS011;67442;44.570;18.610;2024-01-15T09:00:04;339.38;;;126.68;;
78183;SDS011;67442;44.570;18.610;2024-01-15T09:02:34;639.97;;;215.88;;
78183;SDS011;67442;44.570;18.610;2024-01-15T09:05:01;509.50;;;169.18;;
78183;SDS011;67442;44.570;18.610;2024-01-15T09:07:31;314.90;;;119.25;;
78183;SDS011;67442;44.570;18.610;2024-01-15T09:09:58;358.20;;;138.23;;
78183;SDS011;67442;44.570;18.610;2024-01-15T09:12:27;371.08;;;144.23;;
78183;SDS011;67442;44.570;18.610;2024-01-15T09:14:55;443.33;;;170.85;;
78183;SDS011;67442;44.570;18.610;2024-01-15T09:17:32;296.45;;;114.55;;
78183;SDS011;67442;44.570;18.610;2024-01-15T09:20:03;277.88;;;105.85;;
78183;SDS011;67442;44.570;18.610;2024-01-15T09:22:34;315.38;;;127.78;;
78183;SDS011;67442;44.570;18.610;2024-01-15T09:25:09;357.40;;;155.13;;
78183;SDS011;67442;44.570;18.610;2024-01-15T09:27:39;379.98;;;164.30;;
78183;SDS011;67442;44.570;18.610;2024-01-15T09:30:13;385.90;;;162.17;;
78183;SDS011;67442;44.570;18.610;2024-01-15T09:32:42;366.42;;;157.85;;
78183;SDS011;67442;44.570;18.610;2024-01-15T09:35:09;358.35;;;149.13;;
78183;SDS011;67442;44.570;18.610;2024-01-15T09:37:38;340.58;;;146.30;;
78183;SDS011;67442;44.570;18.610;2024-01-15T09:40:12;451.45;;;184.90;;
78183;SDS011;67442;44.570;18.610;2024-01-15T09:45:14;283.83;;;120.57;;
78183;SDS011;67442;44.570;18.610;2024-01-15T09:47:41;293.13;;;120.22;;
78183;SDS011;67442;44.570;18.610;2024-01-15T09:50:09;280.88;;;120.53;;
78183;SDS011;67442;44.570;18.610;2024-01-15T09:52:36;355.88;;;154.55;;
78183;SDS011;67442;44.570;18.610;2024-01-15T09:55:05;275.23;;;116.15;;
78183;SDS011;67442;44.570;18.610;2024-01-15T09:57:35;279.67;;;122.25;;
78183;SDS011;67442;44.570;18.610;2024-01-15T10:00:07;251.30;;;108.88;;
78183;SDS011;67442;44.570;18.610;2024-01-15T10:02:37;197.90;;;90.32;;
78183;SDS011;67442;44.570;18.610;2024-01-15T10:05:09;367.60;;;148.05;;
78183;SDS011;67442;44.570;18.610;2024-01-15T10:07:40;296.65;;;137.00;;
78183;SDS011;67442;44.570;18.610;2024-01-15T10:10:09;268.85;;;116.50;;
78183;SDS011;67442;44.570;18.610;2024-01-15T10:12:42;215.35;;;97.55;;
78183;SDS011;67442;44.570;18.610;2024-01-15T10:15:10;184.98;;;80.82;;
78183;SDS011;67442;44.570;18.610;2024-01-15T10:17:42;197.98;;;88.63;;
78183;SDS011;67442;44.570;18.610;2024-01-15T10:20:13;346.67;;;130.65;;
78183;SDS011;67442;44.570;18.610;2024-01-15T10:22:42;262.73;;;114.05;;
78183;SDS011;67442;44.570;18.610;2024-01-15T10:25:10;220.18;;;96.22;;
78183;SDS011;67442;44.570;18.610;2024-01-15T10:27:43;224.02;;;95.72;;
78183;SDS011;67442;44.570;18.610;2024-01-15T10:30:10;241.30;;;109.50;;
78183;SDS011;67442;44.570;18.610;2024-01-15T10:32:58;244.77;;;108.00;;
78183;SDS011;67442;44.570;18.610;2024-01-15T10:35:35;230.70;;;101.57;;
78183;SDS011;67442;44.570;18.610;2024-01-15T10:38:02;289.17;;;123.65;;
78183;SDS011;67442;44.570;18.610;2024-01-15T10:40:31;207.02;;;86.65;;
78183;SDS011;67442;44.570;18.610;2024-01-15T10:43:00;186.32;;;85.03;;
78183;SDS011;67442;44.570;18.610;2024-01-15T10:45:28;319.17;;;136.95;;
78183;SDS011;67442;44.570;18.610;2024-01-15T10:47:56;318.83;;;144.20;;
78183;SDS011;67442;44.570;18.610;2024-01-15T10:50:24;335.17;;;150.48;;
78183;SDS011;67442;44.570;18.610;2024-01-15T10:52:52;321.50;;;147.85;;
78183;SDS011;67442;44.570;18.610;2024-01-15T10:55:20;377.48;;;163.35;;
78183;SDS011;67442;44.570;18.610;2024-01-15T10:57:53;300.60;;;133.85;;
78183;SDS011;67442;44.570;18.610;2024-01-15T11:00:25;284.25;;;124.68;;
78183;SDS011;67442;44.570;18.610;2024-01-15T11:02:57;314.63;;;142.57;;
78183;SDS011;67442;44.570;18.610;2024-01-15T11:05:27;283.85;;;128.38;;
78183;SDS011;67442;44.570;18.610;2024-01-15T11:07:59;278.58;;;121.65;;
78183;SDS011;67442;44.570;18.610;2024-01-15T11:13:21;283.15;;;127.80;;
78183;SDS011;67442;44.570;18.610;2024-01-15T11:18:37;328.92;;;148.35;;
78183;SDS011;67442;44.570;18.610;2024-01-15T11:26:27;334.25;;;149.25;;
78183;SDS011;67442;44.570;18.610;2024-01-15T11:29:07;372.63;;;170.88;;
78183;SDS011;67442;44.570;18.610;2024-01-15T11:34:05;345.33;;;155.75;;
78183;SDS011;67442;44.570;18.610;2024-01-15T11:41:56;305.15;;;144.45;;
78183;SDS011;67442;44.570;18.610;2024-01-15T11:44:28;237.40;;;101.72;;
78183;SDS011;67442;44.570;18.610;2024-01-15T11:46:59;265.75;;;121.65;;
78183;SDS011;67442;44.570;18.610;2024-01-15T11:52:11;359.60;;;162.25;;
78183;SDS011;67442;44.570;18.610;2024-01-15T11:54:41;352.25;;;161.13;;
78183;SDS011;67442;44.570;18.610;2024-01-15T11:57:37;335.63;;;149.40;;
78183;SDS011;67442;44.570;18.610;2024-01-15T12:00:12;574.20;;;259.70;;
78183;SDS011;67442;44.570;18.610;2024-01-15T12:02:39;472.58;;;213.50;;
78183;SDS011;67442;44.570;18.610;2024-01-15T12:05:09;454.05;;;210.43;;
78183;SDS011;67442;44.570;18.610;2024-01-15T12:07:47;431.35;;;198.38;;
78183;SDS011;67442;44.570;18.610;2024-01-15T12:15:42;325.70;;;150.48;;
78183;SDS011;67442;44.570;18.610;2024-01-15T12:18:16;317.80;;;141.88;;
78183;SDS011;67442;44.570;18.610;2024-01-15T12:20:44;295.42;;;131.05;;
78183;SDS011;67442;44.570;18.610;2024-01-15T12:23:14;339.13;;;157.30;;
78183;SDS011;67442;44.570;18.610;2024-01-15T12:25:45;319.00;;;146.90;;
78183;SDS011;67442;44.570;18.610;2024-01-15T12:28:15;348.77;;;164.07;;
78183;SDS011;67442;44.570;18.610;2024-01-15T12:30:46;313.20;;;141.98;;
78183;SDS011;67442;44.570;18.610;2024-01-15T12:33:17;378.65;;;171.18;;
78183;SDS011;67442;44.570;18.610;2024-01-15T12:35:48;369.80;;;168.50;;
78183;SDS011;67442;44.570;18.610;2024-01-15T12:38:15;439.55;;;207.95;;
78183;SDS011;67442;44.570;18.610;2024-01-15T12:40:46;517.92;;;253.68;;
78183;SDS011;67442;44.570;18.610;2024-01-15T12:43:17;454.85;;;215.32;;
78183;SDS011;67442;44.570;18.610;2024-01-15T12:45:45;459.77;;;217.10;;
78183;SDS011;67442;44.570;18.610;2024-01-15T12:48:16;458.08;;;220.60;;
78183;SDS011;67442;44.570;18.610;2024-01-15T12:50:47;430.67;;;208.25;;
78183;SDS011;67442;44.570;18.610;2024-01-15T12:53:13;399.52;;;191.70;;
78183;SDS011;67442;44.570;18.610;2024-01-15T12:55:45;412.98;;;197.60;;
78183;SDS011;67442;44.570;18.610;2024-01-15T12:58:13;433.88;;;209.63;;
78183;SDS011;67442;44.570;18.610;2024-01-15T13:00:41;430.75;;;201.30;;
78183;SDS011;67442;44.570;18.610;2024-01-15T13:03:08;423.67;;;202.10;;
78183;SDS011;67442;44.570;18.610;2024-01-15T13:05:36;439.13;;;209.88;;
78183;SDS011;67442;44.570;18.610;2024-01-15T13:08:04;404.38;;;185.07;;
78183;SDS011;67442;44.570;18.610;2024-01-15T13:10:32;295.83;;;134.02;;
78183;SDS011;67442;44.570;18.610;2024-01-15T13:13:00;228.75;;;98.13;;
78183;SDS011;67442;44.570;18.610;2024-01-15T13:15:28;202.52;;;88.72;;
78183;SDS011;67442;44.570;18.610;2024-01-15T13:18:15;272.27;;;121.03;;
78183;SDS011;67442;44.570;18.610;2024-01-15T13:20:43;398.95;;;184.18;;
78183;SDS011;67442;44.570;18.610;2024-01-15T13:23:11;531.72;;;244.80;;
78183;SDS011;67442;44.570;18.610;2024-01-15T13:25:39;483.80;;;219.65;;
78183;SDS011;67442;44.570;18.610;2024-01-15T13:28:10;400.60;;;180.25;;
78183;SDS011;67442;44.570;18.610;2024-01-15T13:30:38;469.77;;;214.35;;
78183;SDS011;67442;44.570;18.610;2024-01-15T13:33:06;469.08;;;222.00;;
78183;SDS011;67442;44.570;18.610;2024-01-15T13:35:37;446.95;;;209.73;;
78183;SDS011;67442;44.570;18.610;2024-01-15T13:38:08;543.60;;;249.98;;
78183;SDS011;67442;44.570;18.610;2024-01-15T13:40:36;499.63;;;233.25;;
78183;SDS011;67442;44.570;18.610;2024-01-15T13:43:04;430.92;;;196.18;;
78183;SDS011;67442;44.570;18.610;2024-01-15T13:45:38;387.50;;;171.80;;
78183;SDS011;67442;44.570;18.610;2024-01-15T13:48:07;479.67;;;219.43;;
78183;SDS011;67442;44.570;18.610;2024-01-15T13:50:39;545.22;;;242.57;;
78183;SDS011;67442;44.570;18.610;2024-01-15T13:53:07;775.85;;;347.33;;
78183;SDS011;67442;44.570;18.610;2024-01-15T13:55:38;541.45;;;244.65;;
78183;SDS011;67442;44.570;18.610;2024-01-15T13:58:06;390.60;;;169.40;;
78183;SDS011;67442;44.570;18.610;2024-01-15T14:00:37;401.40;;;175.57;;
78183;SDS011;67442;44.570;18.610;2024-01-15T14:03:11;326.13;;;139.18;;
78183;SDS011;67442;44.570;18.610;2024-01-15T14:05:47;435.00;;;184.90;;
78183;SDS011;67442;44.570;18.610;2024-01-15T14:08:16;457.92;;;196.82;;
78183;SDS011;67442;44.570;18.610;2024-01-15T14:10:47;481.75;;;225.27;;
78183;SDS011;67442;44.570;18.610;2024-01-15T14:13:14;510.00;;;239.18;;
78183;SDS011;67442;44.570;18.610;2024-01-15T14:15:41;450.08;;;205.30;;
78183;SDS011;67442;44.570;18.610;2024-01-15T14:18:08;445.45;;;204.00;;
78183;SDS011;67442;44.570;18.610;2024-01-15T14:20:36;402.75;;;172.80;;
78183;SDS011;67442;44.570;18.610;2024-01-15T14:23:04;407.65;;;176.05;;
78183;SDS011;67442;44.570;18.610;2024-01-15T14:25:32;422.90;;;186.35;;
78183;SDS011;67442;44.570;18.610;2024-01-15T14:28:03;370.23;;;165.50;;
78183;SDS011;67442;44.570;18.610;2024-01-15T14:30:35;347.95;;;150.98;;